メインページ
METAR-TAF:

METAR-TAF

空港 :

フォール=ド=フランス, マルティニーク

マルティニーク・エメ・セゼール国際空港

緯度: 14-36N, 経度: 061-00W, 海抜: 5m

現時点の気象観測

当レポートは32分前の22:00(UTC)に作成
の風 8kt、東/北東から南東の間で変化する
気温 28°C
湿度 79%
気圧 1013 hPa
視程10km以上
高度2200ftの雲はほとんどない

METAR: TFFF 262200Z AUTO 10008KT 070V130 9999 FEW022 28/24 Q1013 TEMPO 3000 SHRA FEW015CB SCT018TCU

時間: 18:32 (22:32 UTC)

予報

当レポートは5時間32分前の17:00(UTC)に作成
予報は26日の 18時(UTC)から 27日の 18時(UTC)まで有効
東/南東の風 12kt
視程10km以上
高度2500ftの雲は散在している
高度4000ftの雲は散在している
確率 40% :
26日の 18時(UTC)から 27日の 18時(UTC)まで一時的に
視程: 3000m
高度1500ftの雲はほとんどない, 積乱雲.
高度1800ftの雲は散在している, 塔状積雲.
にわか雨

TAF: TFFF 261700Z 2618/2718 12012KT 9999 SCT025 SCT040 PROB40 TEMPO 2618/2718 3000 SHRA FEW015CB SCT018TCU

4,000以上の空港の気象観測と天気予報(METAR報とTAF報)

利用可能な観測所は地図上に黄色い丸と赤い丸で示す。

丸の上にカーソルを重ねると観測所名を参照できる。

次にクリックすると気象観測と天気予報を参照できる。

マップの切り替え:黒色「×」印の緑ボタンをクリックして拡大、「-」印の緑ボタンをクリックして縮小、緑色の三角印をクリックして隣りの地図に切り替え


METAR-TAF: